createdAt,value
2022-08-27T00:04:47.099Z,18.10
2022-08-27T00:09:48.776Z,18.63
2022-08-27T00:14:50.566Z,21.30
2022-08-27T00:19:52.242Z,22.20
2022-08-27T00:24:53.967Z,22.70
2022-08-27T00:29:55.957Z,22.97
2022-08-27T00:34:57.623Z,24.20
2022-08-27T00:39:59.414Z,23.50
2022-08-27T00:45:01.352Z,22.30
2022-08-27T00:50:07.717Z,22.07
2022-08-27T00:55:11.954Z,20.30
2022-08-27T01:00:15.675Z,22.60
2022-08-27T01:05:19.232Z,21.60
2022-08-27T01:10:22.374Z,20.67
2022-08-27T01:15:25.717Z,21.87
2022-08-27T01:20:29.243Z,21.77
2022-08-27T01:25:30.963Z,22.07
2022-08-27T01:30:32.651Z,22.87
2022-08-27T01:35:35.619Z,21.37
2022-08-27T01:40:41.831Z,21.97
2022-08-27T01:45:49.173Z,22.83
2022-08-27T01:50:50.831Z,21.47
2022-08-27T01:55:52.995Z,23.30
2022-08-27T02:00:56.850Z,21.30
2022-08-27T02:05:58.695Z,22.87
2022-08-27T02:11:00.405Z,21.83
2022-08-27T02:16:02.124Z,20.80
2022-08-27T02:21:03.886Z,22.20
2022-08-27T02:26:05.584Z,21.47
2022-08-27T02:31:07.588Z,21.53
2022-08-27T02:36:09.376Z,23.00
2022-08-27T02:41:11.118Z,22.00
2022-08-27T02:46:12.991Z,20.67
2022-08-27T02:51:14.781Z,20.00
2022-08-27T02:56:17.326Z,21.93
2022-08-27T03:01:23.678Z,20.53
2022-08-27T03:06:25.395Z,19.40
2022-08-27T03:11:27.490Z,23.07
2022-08-27T03:16:29.400Z,21.20
2022-08-27T03:21:31.140Z,20.07
2022-08-27T03:26:32.883Z,19.07
2022-08-27T03:31:34.779Z,20.20
2022-08-27T03:36:36.526Z,19.40
2022-08-27T03:41:47.257Z,18.30
2022-08-27T03:46:56.773Z,18.80
2022-08-27T03:51:58.575Z,19.57
2022-08-27T03:57:00.298Z,19.20
2022-08-27T04:02:02.215Z,16.90
2022-08-27T04:07:04.080Z,18.70
2022-08-27T04:12:05.823Z,17.73
2022-08-27T04:17:07.925Z,18.60
2022-08-27T04:22:09.582Z,19.23
2022-08-27T04:27:11.579Z,16.80
2022-08-27T04:32:13.294Z,16.20
2022-08-27T04:37:14.963Z,16.33
2022-08-27T04:42:23.485Z,16.23
2022-08-27T04:47:25.155Z,20.80
2022-08-27T04:52:26.880Z,19.27
2022-08-27T04:57:28.994Z,21.83
2022-08-27T05:02:30.669Z,20.70
2022-08-27T05:07:32.501Z,19.73
2022-08-27T05:12:34.160Z,20.10
2022-08-27T05:17:35.847Z,20.50
2022-08-27T05:22:37.531Z,19.87
2022-08-27T05:27:39.231Z,20.90
2022-08-27T05:32:41.078Z,19.37
2022-08-27T05:37:42.803Z,18.70
2022-08-27T05:42:46.490Z,19.10
2022-08-27T05:47:52.853Z,19.47
2022-08-27T05:52:54.617Z,19.40
2022-08-27T05:57:56.315Z,17.53
2022-08-27T06:02:58.020Z,16.80
2022-08-27T06:07:59.729Z,15.53
2022-08-27T06:13:01.395Z,15.30
2022-08-27T06:18:05.127Z,16.20
2022-08-27T06:23:06.801Z,15.10
2022-08-27T06:28:08.500Z,14.53
2022-08-27T06:33:10.562Z,14.03
2022-08-27T06:38:12.297Z,13.40
2022-08-27T06:43:13.997Z,13.60
2022-08-27T06:48:15.720Z,13.53
2022-08-27T06:53:17.411Z,13.60
2022-08-27T06:58:25.850Z,14.90
2022-08-27T07:03:27.516Z,14.30
2022-08-27T07:08:29.182Z,14.27
2022-08-27T07:13:30.958Z,14.87
2022-08-27T07:18:32.859Z,14.97
2022-08-27T07:23:34.817Z,14.90
2022-08-27T07:28:38.007Z,18.17
2022-08-27T07:33:39.929Z,16.57
2022-08-27T07:38:48.429Z,15.53
2022-08-27T07:44:20.643Z,16.40
2022-08-27T07:49:22.937Z,15.57
2022-08-27T07:54:25.352Z,17.97
2022-08-27T07:59:27.467Z,16.67
2022-08-27T08:04:29.379Z,16.00
2022-08-27T08:09:32.233Z,15.67
2022-08-27T08:14:33.956Z,15.73
2022-08-27T08:19:35.806Z,16.30
2022-08-27T08:24:37.626Z,15.10
2022-08-27T08:29:39.478Z,16.20
2022-08-27T08:34:41.246Z,14.53
2022-08-27T08:39:42.995Z,14.63
2022-08-27T08:44:49.506Z,15.07
2022-08-27T08:50:08.092Z,13.67
2022-08-27T08:55:29.263Z,15.13
2022-08-27T09:00:31.662Z,15.87
2022-08-27T09:05:33.585Z,14.97
2022-08-27T09:10:51.361Z,15.60
2022-08-27T09:15:58.781Z,16.30
2022-08-27T09:21:27.750Z,16.07
2022-08-27T09:26:32.311Z,16.03
2022-08-27T09:31:36.328Z,16.63
2022-08-27T09:37:11.166Z,17.10
2022-08-27T09:42:46.347Z,15.97
2022-08-27T09:47:53.389Z,17.17
2022-08-27T09:52:56.472Z,16.30
2022-08-27T09:57:58.253Z,31.80
2022-08-27T10:03:00.317Z,20.43
2022-08-27T10:08:16.836Z,19.83
2022-08-27T10:13:46.744Z,20.17
2022-08-27T10:19:16.764Z,18.87
2022-08-27T10:24:29.687Z,20.27
2022-08-27T10:30:05.051Z,20.60
2022-08-27T10:35:17.820Z,20.70
2022-08-27T10:40:42.814Z,18.37
2022-08-27T10:46:07.732Z,18.60
2022-08-27T10:51:20.555Z,17.67
2022-08-27T10:56:31.103Z,14.90
2022-08-27T11:01:39.560Z,17.57
2022-08-27T11:06:44.366Z,13.03
2022-08-27T11:12:13.942Z,13.20
2022-08-27T11:17:35.941Z,12.67
2022-08-27T11:22:43.544Z,12.53
2022-08-27T11:27:45.224Z,11.40
2022-08-27T11:33:14.200Z,12.60
2022-08-27T11:38:34.220Z,11.50
2022-08-27T11:43:35.914Z,10.30
2022-08-27T11:48:42.570Z,11.13
2022-08-27T11:54:10.258Z,10.57
2022-08-27T11:59:31.089Z,10.97
2022-08-27T12:04:37.839Z,10.67
2022-08-27T12:09:51.572Z,12.53
2022-08-27T12:15:27.246Z,12.67
2022-08-27T12:20:58.288Z,12.07
2022-08-27T12:26:24.948Z,11.90
2022-08-27T12:31:26.734Z,11.80
2022-08-27T12:36:28.724Z,9.87
2022-08-27T12:41:32.527Z,8.90
2022-08-27T12:46:54.589Z,8.90
2022-08-27T12:51:56.279Z,8.53
2022-08-27T12:57:36.893Z,8.57
2022-08-27T13:02:58.260Z,8.83
2022-08-27T13:07:59.999Z,8.13
2022-08-27T13:13:07.161Z,7.40
2022-08-27T13:18:08.870Z,9.63
2022-08-27T13:23:20.509Z,7.10
2022-08-27T13:28:24.136Z,6.57
2022-08-27T13:33:28.486Z,6.97
2022-08-27T13:38:34.908Z,6.67
2022-08-27T13:43:38.539Z,6.07
2022-08-27T13:48:41.471Z,6.90
2022-08-27T13:54:03.448Z,6.33
2022-08-27T13:59:18.588Z,6.13
2022-08-27T14:04:22.884Z,6.43
2022-08-27T14:09:28.246Z,5.60
2022-08-27T14:14:30.652Z,5.23
2022-08-27T14:19:36.665Z,5.57
2022-08-27T14:24:38.775Z,5.10
2022-08-27T14:29:40.456Z,4.70
2022-08-27T14:34:42.585Z,5.33
2022-08-27T14:39:44.924Z,4.80
2022-08-27T14:44:47.090Z,4.53
2022-08-27T14:49:49.357Z,4.80
2022-08-27T14:54:51.004Z,5.00
2022-08-27T14:59:52.711Z,5.80
2022-08-27T15:04:54.622Z,5.20
2022-08-27T15:09:56.740Z,4.50
2022-08-27T15:14:58.427Z,4.43
2022-08-27T15:20:00.282Z,4.13
2022-08-27T15:25:03.197Z,4.33
2022-08-27T15:30:07.012Z,4.00
2022-08-27T15:35:12.406Z,7.40
2022-08-27T15:40:15.010Z,5.07
2022-08-27T15:45:17.043Z,4.90
2022-08-27T15:50:18.950Z,4.67
2022-08-27T15:55:22.824Z,5.40
2022-08-27T16:00:24.523Z,6.40
2022-08-27T16:05:26.356Z,4.63
2022-08-27T16:10:28.015Z,4.70
2022-08-27T16:15:29.910Z,4.77
2022-08-27T16:20:31.810Z,5.70
2022-08-27T16:25:33.487Z,5.37
2022-08-27T16:30:35.397Z,4.60
2022-08-27T16:35:37.272Z,4.27
2022-08-27T16:40:41.970Z,9.07
2022-08-27T16:45:44.064Z,4.73
2022-08-27T16:50:45.726Z,4.50
2022-08-27T16:55:47.833Z,4.57
2022-08-27T17:00:51.104Z,4.30
2022-08-27T17:05:52.761Z,4.30
2022-08-27T17:10:54.613Z,4.17
2022-08-27T17:15:56.571Z,4.13
2022-08-27T17:21:00.016Z,3.87
2022-08-27T17:26:02.843Z,4.43
2022-08-27T17:31:04.674Z,7.23
2022-08-27T17:36:07.216Z,4.20
2022-08-27T17:41:14.399Z,8.23
2022-08-27T17:46:16.242Z,6.37
2022-08-27T17:51:19.794Z,4.10
2022-08-27T17:56:22.153Z,4.13
2022-08-27T18:01:28.767Z,4.10
2022-08-27T18:06:30.515Z,3.60
2022-08-27T18:11:32.812Z,3.70
2022-08-27T18:16:34.649Z,4.17
2022-08-27T18:21:36.376Z,3.60
2022-08-27T18:26:48.142Z,3.90
2022-08-27T18:31:49.847Z,3.90
2022-08-27T18:36:51.534Z,4.13
2022-08-27T18:41:53.569Z,4.20
2022-08-27T18:46:55.268Z,4.03
2022-08-27T18:51:56.957Z,4.07
2022-08-27T18:56:58.653Z,4.70
2022-08-27T19:02:00.653Z,5.20
2022-08-27T19:07:02.720Z,4.60
2022-08-27T19:12:05.039Z,4.30
2022-08-27T19:17:06.795Z,3.90
2022-08-27T19:22:08.455Z,4.00
2022-08-27T19:27:10.114Z,4.20
2022-08-27T19:32:11.897Z,3.17
2022-08-27T19:37:18.671Z,3.37
2022-08-27T19:42:20.345Z,3.43
2022-08-27T19:47:25.773Z,3.80
2022-08-27T19:52:27.443Z,4.80
2022-08-27T19:57:29.117Z,3.07
2022-08-27T20:02:30.837Z,2.83
2022-08-27T20:07:32.638Z,3.10
2022-08-27T20:12:37.185Z,2.60
2022-08-27T20:17:38.852Z,3.10
2022-08-27T20:22:41.088Z,3.07
2022-08-27T20:27:43.027Z,2.70
2022-08-27T20:32:46.685Z,3.03
2022-08-27T20:37:48.368Z,3.30
2022-08-27T20:42:50.060Z,3.53
2022-08-27T20:47:52.376Z,3.50
2022-08-27T20:52:54.129Z,3.40
2022-08-27T20:58:31.256Z,3.33
2022-08-27T21:03:32.934Z,3.50
2022-08-27T21:08:34.629Z,3.40
2022-08-27T21:13:50.957Z,3.33
2022-08-27T21:18:57.229Z,4.07
2022-08-27T21:23:58.912Z,3.97
2022-08-27T21:29:00.595Z,3.50
2022-08-27T21:34:02.272Z,3.70
2022-08-27T21:39:03.929Z,4.33
2022-08-27T21:44:05.606Z,4.50
2022-08-27T21:49:08.152Z,5.70
2022-08-27T21:54:09.840Z,4.20
2022-08-27T21:59:12.621Z,4.23
2022-08-27T22:04:14.311Z,4.93
2022-08-27T22:09:15.978Z,4.20
2022-08-27T22:14:18.320Z,4.93
2022-08-27T22:19:20.345Z,3.97
2022-08-27T22:24:22.053Z,5.00
2022-08-27T22:29:24.504Z,4.07
2022-08-27T22:34:26.199Z,4.47
2022-08-27T22:39:27.885Z,4.57
2022-08-27T22:44:30.961Z,5.27
2022-08-27T22:49:32.672Z,5.00
2022-08-27T22:54:34.548Z,4.50
2022-08-27T22:59:36.251Z,4.30
2022-08-27T23:04:54.021Z,4.37
2022-08-27T23:09:56.493Z,5.20
2022-08-27T23:14:58.154Z,4.50
2022-08-27T23:19:59.830Z,5.10
2022-08-27T23:25:20.311Z,4.90
2022-08-27T23:30:22.393Z,5.60
2022-08-27T23:35:25.777Z,5.43
2022-08-27T23:40:27.645Z,3.97
2022-08-27T23:45:30.168Z,5.27
2022-08-27T23:50:34.032Z,5.40
2022-08-27T23:55:36.478Z,5.17
